• Join FlightAware (Why Join?)
  • Login
  • US Flag 
12:22PM EDT


 

Airport Tracker/Info


-or-


 

Live Flight TrackerFlight Track Log ✈ N559LC ✈ 31-Oct-2013 ✈ KBCT - KDTW

Flight Track Log - Related Links

Times and Time Zones

All times are in EDT time to prevent confusion due to time zone crossing. See the N559LC flight status page for this flight to view local times or setup timezone preferences in your user account.

Time Position Orientation Groundspeed Altitude Reporting Facility
EDT Latitude Longitude Course Direction KTS MPH feet Rate Location/Type
01:09PM 26.5319 -80.0564 339° North 273 314 6,900  Level Miami Center
01:10PM 26.5447 -80.1428 279° West 225 259 9,900 1,680 Climbing Miami Center
01:11PM 26.5550 -80.2428 277° West 273 314 10,300 1,200 Climbing Miami Center
01:12PM 27.0140 -80.2171 329° Northwest  Level Estimated
01:12PM 26.5967 -80.3392 296° West 312 359 12,300  Level Miami Center
01:13PM 27.1199 -80.2355 339° North  Level Estimated
01:13PM 26.6872 -80.3931 332° Northwest 328 377 14,200  Level Miami Center
01:14PM 26.7861 -80.4425 336° Northwest 345 397 17,200 1,860 Climbing Miami Center
01:15PM 26.8625 -80.4800 336° Northwest 358 412 18,000 1,380 Climbing Miami Center
01:16PM 26.9739 -80.5392 335° Northwest 379 436 20,000 1,800 Climbing Miami Center
01:17PM 27.0747 -80.5914 335° Northwest 391 450 21,700 1,500 Climbing Miami Center
01:18PM 27.1819 -80.6439 336° Northwest 401 461 23,000 1,320 Climbing Miami Center
01:19PM 27.2892 -80.6989 335° Northwest 413 475 24,400 1,440 Climbing Miami Center
01:20PM 27.4003 -80.7539 336° Northwest 424 488 25,900 1,380 Climbing Miami Center
01:21PM 27.5158 -80.8069 338° Northwest 432 497 27,200 1,320 Climbing Miami Center
01:22PM 27.6292 -80.8603 337° Northwest 437 503 28,600 1,380 Climbing Miami Center
01:23PM 27.7514 -80.8925 347° North 443 510 30,000 1,860 Climbing Miami Center
01:24PM 27.8656 -80.9178 349° North 431 496 32,400 1,920 Climbing Miami Center
01:25PM 27.9836 -80.9456 348° North 424 488 33,900 1,380 Climbing Miami Center
01:26PM 28.0978 -80.9731 348° North 424 488 35,200 1,380 Climbing Miami Center
01:27PM 28.2139 -80.9986 349° North 424 488 36,700 1,620 Climbing Miami Center
01:28PM 28.3278 -81.0264 348° North 424 488 38,500 1,140 Climbing Miami Center
01:29PM 28.4397 -81.0517 349° North 424 488 39,000 180 Climbing Miami Center
01:30PM 28.6028 -81.0931 347° North 420 483 39,000  Level Jacksonville Center
01:31PM 28.7200 -81.1194 349° North 425 489 39,000  Level Jacksonville Center
01:32PM 28.8350 -81.1481 348° North 425 489 39,000  Level Jacksonville Center
01:33PM 28.9503 -81.1747 349° North 425 489 39,000  Level Jacksonville Center
01:34PM 29.0653 -81.2011 349° North 420 483 39,000  Level Jacksonville Center
01:35PM 29.1764 -81.2372 344° North 415 478 39,000  Level Jacksonville Center
01:36PM 29.2733 -81.3119 326° Northwest 402 463 39,000  Level Jacksonville Center
01:37PM 29.3725 -81.3842 328° Northwest 414 476 39,000 60 Level Jacksonville Center
01:38PM 29.4736 -81.4683 324° Northwest 414 476 39,200 480 Climbing Jacksonville Center
01:39PM 29.5725 -81.5386 328° Northwest 414 476 40,000 780 Climbing Jacksonville Center
01:40PM 29.6692 -81.6042 329° Northwest 414 476 40,800 480 Climbing Jacksonville Center
01:41PM 29.7822 -81.6386 345° North 401 461 41,000 60 Climbing Jacksonville Center
01:42PM 29.8931 -81.6539 353° North 401 461 41,000  Level Jacksonville Center
01:43PM 30.0058 -81.6669 354° North 401 461 41,000  Level Jacksonville Center
01:44PM 30.1189 -81.6800 354° North 406 467 41,000  Level Jacksonville Center
01:45PM 30.2317 -81.6906 355° North 406 467 41,000  Level Jacksonville Center
01:46PM 30.3486 -81.7083 353° North 406 467 41,000  Level Jacksonville Center
01:47PM 30.4489 -81.7192 355° North 406 467 41,000  Level Jacksonville Center
01:48PM 30.5703 -81.7369 353° North 412 474 41,000  Level Jacksonville Center
01:49PM 30.6853 -81.7547 352° North 418 481 41,000  Level Jacksonville Center
01:50PM 30.8003 -81.7703 353° North 418 481 41,000  Level Jacksonville Center
01:51PM 30.9131 -81.7861 353° North 413 475 41,000  Level Jacksonville Center
01:52PM 31.0281 -81.8017 353° North 408 470 41,000  Level Jacksonville Center
01:53PM 31.1453 -81.8172 354° North 408 470 41,000  Level Jacksonville Center
01:54PM 31.2603 -81.8331 353° North 408 470 41,000  Level Jacksonville Center
01:55PM 31.3708 -81.8486 353° North 402 463 41,000  Level Jacksonville Center
01:56PM 31.4964 -81.8644 354° North 407 468 41,000  Level Jacksonville Center
01:57PM 31.6133 -81.8803 353° North 414 476 41,000  Level Jacksonville Center
01:58PM 31.7178 -81.8911 355° North 414 476 41,000  Level Jacksonville Center
01:59PM 31.8433 -81.9094 353° North 414 476 41,000  Level Jacksonville Center
02:01PM 32.1192 -81.9469 353° North 425 489 41,000  Level Atlanta Center
02:02PM 32.2342 -81.9614 354° North 419 482 41,000  Level Atlanta Center
02:03PM 32.3450 -81.9761 354° North 411 473 41,000  Level Atlanta Center
02:04PM 32.4622 -81.9931 353° North 411 473 41,000  Level Atlanta Center
02:05PM 32.5939 -82.0097 354° North 421 484 41,000  Level Atlanta Center
02:06PM 32.7092 -82.0244 354° North 426 490 41,000  Level Atlanta Center
02:07PM 32.8300 -82.0242 360° North 426 490 41,000  Level Atlanta Center
02:08PM 32.9511 -82.0239 360° North 426 490 41,000  Level Atlanta Center
02:09PM 33.0722 -82.0233 360° North 426 490 41,000  Level Atlanta Center
02:10PM 33.1933 -82.0231 360° North 426 490 41,000  Level Atlanta Center
02:11PM 33.3122 -82.0228 360° North 421 484 41,000  Level Atlanta Center
02:12PM 33.4333 -82.0225 360° North 421 484 41,000  Level Atlanta Center
02:13PM 33.5564 -82.0222 360° North 427 491 41,000  Level Atlanta Center
02:14PM 33.6794 -82.0217 360° North 432 497 41,000  Level Atlanta Center
02:15PM 33.8028 -82.0214 360° North 432 497 41,000  Level Atlanta Center
02:16PM 33.9133 -82.0211 360° North 443 510 41,000  Level Atlanta Center
02:17PM 34.0344 -82.0233 359° North 438 504 41,000  Level Atlanta Center
02:18PM 34.1575 -82.0231 360° North 438 504 41,000  Level Atlanta Center
02:19PM 34.2786 -82.0253 359° North 438 504 41,000  Level Atlanta Center
02:20PM 34.3997 -82.0247 360° North 438 504 41,000  Level Atlanta Center
02:21PM 34.5206 -82.0219 North 438 504 41,000  Level Atlanta Center
02:22PM 34.6439 -82.0239 359° North 438 504 41,000  Level Atlanta Center
02:23PM 34.7692 -82.0261 359° North 438 504 41,000  Level Atlanta Center
02:24PM 34.8922 -82.0256 360° North 438 504 41,000  Level Atlanta Center
02:25PM 35.0111 -82.0253 360° North 438 504 41,000  Level Atlanta Center
02:26PM 35.1364 -82.0247 360° North 438 504 41,000  Level Atlanta Center
02:27PM 35.2594 -82.0242 360° North 438 504 41,000  Level Atlanta Center
02:28PM 35.3825 -82.0289 358° North 438 504 41,000  Level Atlanta Center
02:29PM 35.5181 -82.0256 North 438 504 41,000  Level Atlanta Center
02:30PM 35.6392 -82.0253 360° North 438 504 41,000  Level Atlanta Center
02:31PM 35.7644 -82.0247 360° North 443 510 41,000  Level Atlanta Center
02:32PM 35.8894 -82.0242 360° North 443 510 41,000  Level Atlanta Center
02:33PM 36.0106 -82.0236 360° North 443 510 41,000  Level Atlanta Center
02:34PM 36.1378 -82.0231 360° North 444 511 41,000  Level Atlanta Center
02:35PM 36.2608 -82.0225 360° North 444 511 41,000  Level Atlanta Center
02:36PM 36.3881 -82.0244 359° North 444 511 41,000  Level Atlanta Center
02:38PM 36.6394 -82.0239 360° North 453 521 41,000  Level Indianapolis Center
02:39PM 36.7650 -82.0236 360° North 452 520 41,000  Level Indianapolis Center
02:41PM 36.8944 -82.0233 360° North 462 532 41,000  Level Indianapolis Center
02:42PM 37.0217 -82.0247 360° North 461 531 41,000  Level Indianapolis Center
02:43PM 37.1481 -82.0250 360° North 455 524 41,000  Level Indianapolis Center
02:44PM 37.2958 -82.0247 360° North 455 524 41,000  Level Indianapolis Center
02:45PM 37.4236 -82.0258 360° North 456 525 41,000  Level Indianapolis Center
02:46PM 37.5503 -82.0253 360° North 456 525 41,000  Level Indianapolis Center
02:47PM 37.6772 -82.0253 360° North 456 525 41,000  Level Indianapolis Center
02:48PM 37.8042 -82.0253 360° North 457 526 41,000  Level Indianapolis Center
02:49PM 37.9339 -82.0261 360° North 456 525 41,000  Level Indianapolis Center
02:50PM 38.0631 -82.0247 360° North 460 529 41,000  Level Indianapolis Center
02:51PM 38.1917 -82.0261 360° North 459 528 41,000  Level Indianapolis Center
02:52PM 38.3458 -82.0258 360° North 460 529 41,000  Level Indianapolis Center
02:53PM 38.4756 -82.0267 360° North 461 531 41,000  Level Indianapolis Center
02:54PM 38.6050 -82.0258 360° North 460 529 41,000  Level Indianapolis Center
02:55PM 38.7356 -82.0275 359° North 462 532 41,000  Level Indianapolis Center
02:56PM 38.8622 -82.0433 354° North 452 520 41,000 -360 Level Indianapolis Center
02:57PM 38.9883 -82.0639 353° North 451 519 40,300 -960 Descending Indianapolis Center
02:58PM 39.1144 -82.0831 353° North 451 519 39,100 -1,260 Descending Indianapolis Center
02:59PM 39.2417 -82.1036 353° North 457 526 37,700 -1,020 Descending Indianapolis Center
03:00PM 39.3728 -82.1236 353° North 469 540 37,000 -540 Descending Indianapolis Center
03:01PM 39.5108 -82.1464 353° North 464 534 36,600 -1,020 Descending Indianapolis Center
03:02PM 39.6419 -82.1675 353° North 474 545 35,000 -780 Descending Indianapolis Center
03:03PM 39.7769 -82.1886 353° North 487 560 35,000 -420 Level Indianapolis Center
03:04PM 39.9372 -82.2142 353° North 488 562 34,200 -1,440 Descending Indianapolis Center
03:05PM 40.0739 -82.2361 353° North 496 571 32,100 -1,980 Descending Indianapolis Center
03:06PM 40.2117 -82.2597 353° North 501 577 30,100 -1,020 Descending Indianapolis Center
03:07PM 40.3656 -82.2850 353° North 492 566 30,000 -60 Descending Indianapolis Center
03:08PM 40.5017 -82.3078 353° North 488 562 30,000  Level Indianapolis Center
03:09PM 40.6336 -82.3461 348° North 481 554 30,000  Level Indianapolis Center
03:10PM 40.7658 -82.3844 348° North 479 551 30,000  Level Indianapolis Center
03:12PM 40.8975 -82.4231 348° North 479 551 30,000 -240 Level Indianapolis Center
03:13PM 41.0319 -82.4628 347° North 485 558 29,600 -1,560 Descending Indianapolis Center
03:14PM 41.1658 -82.5008 348° North 484 557 26,800 -2,940 Descending Indianapolis Center
03:15PM 41.2942 -82.5367 348° North 467 537 23,600 -3,180 Descending Indianapolis Center
03:16PM 41.4158 -82.5717 348° North 446 513 20,300 -2,940 Descending Indianapolis Center
03:16PM 41.4942 -82.6381 328° Northwest 392 451 18,700 -2,220 Descending Cleveland Center
03:17PM 41.5367 -82.7161 306° West 363 418 17,300 -1,680 Descending Cleveland Center
03:17PM 41.5383 -82.7131 54° Northeast 383 441 17,400 -1,740 Climbing Cleveland Center
03:18PM 41.5953 -82.8297 303° West 366 421 15,600 -1,680 Descending Cleveland Center
03:18PM 41.5956 -82.8275 81° East 370 426 15,700 -1,920 Climbing Cleveland Center
03:19PM 41.6594 -82.9553 304° West 354 407 13,500 -1,980 Descending Cleveland Center
03:19PM 41.6544 -82.9442 121° Southeast 360 414 13,700 -1,380 Climbing Cleveland Center
03:20PM 41.7206 -83.0586 308° West 354 407 12,100 -1,560 Descending Cleveland Center
03:20PM 41.7122 -83.0489 139° Southeast 352 405 12,100 -120 Level Cleveland Center
03:21PM 41.8069 -83.1347 326° Northwest 371 427 12,000 -120 Descending Cleveland Center
03:21PM 41.7953 -83.1244 147° Southeast 363 418 12,000  Level Cleveland Center
03:22PM 41.9011 -83.1925 334° Northwest 381 438 12,000  Level Cleveland Center
03:22PM 41.8878 -83.1869 163° South 371 427 12,000 60 Level Cleveland Center
03:23PM 41.9983 -83.2367 342° North 356 410 12,100 60 Climbing Cleveland Center
03:23PM 42.0028 -83.2356 11° North 373 429 12,100  Level Cleveland Center
03:24PM 42.0819 -83.2400 358° North 279 321 12,100  Level Cleveland Center
03:24PM 42.0867 -83.2364 30° Northeast 307 353 12,100 -900 Level Cleveland Center
03:25PM 42.1686 -83.2294 North 285 328 11,100 -1,020 Descending Cleveland Center
03:25PM 42.1614 -83.2314 191° South 275 316 11,100 -1,800 Level Cleveland Center
03:26PM 42.2414 -83.1803 25° Northeast 292 336 9,300 -1,680 Descending Cleveland Center
03:26PM 42.2333 -83.1850 203° Southwest 294 338 9,400 -1,620 Climbing Cleveland Center
03:27PM 42.3119 -83.1336 26° Northeast 278 320 7,700 -1,860 Descending Cleveland Center
03:27PM 42.3161 -83.1281 45° Northeast 283 326 7,500 -1,500 Descending Cleveland Center
03:28PM 42.3797 -83.0978 19° North 241 277 6,200 -1,500 Descending Cleveland Center
03:28PM 42.3803 -83.0981 340° North 262 302 6,000 -1,620 Descending Cleveland Center
03:29PM 42.4067 -83.1553 302° West 157 181 4,600 -1,500 Descending Cleveland Center
03:30PM 42.4069 -83.1547 56° Northeast 195 224 4,500 -540 Descending Cleveland Center
03:30PM 42.3858 -83.2089 242° Southwest 148 170 4,100 -600 Descending Cleveland Center
03:31PM 42.3864 -83.2072 66° East 162 186 3,900 -300 Descending Cleveland Center
03:31PM 42.3569 -83.2331 213° Southwest 121 139 3,800 -300 Descending Cleveland Center
03:32PM 42.3564 -83.2314 114° Southeast 131 151 3,600 -720 Descending Cleveland Center
03:32PM 42.3281 -83.2544 211° Southwest 121 139 3,100 -600 Descending Cleveland Center
03:33PM 42.3267 -83.2531 144° Southeast 122 140 3,000 -600 Descending Cleveland Center
03:33PM 42.3014 -83.2733 211° Southwest 106 122 2,500 -720 Descending Cleveland Center
03:34PM 42.2961 -83.2758 199° South 112 129 2,300 -540 Descending Cleveland Center
03:34PM 42.2744 -83.2950 213° Southwest 110 127 2,000 -540 Descending Cleveland Center
03:35PM 42.2692 -83.2961 189° South 110 127 1,800 -600 Descending Cleveland Center
03:35PM 42.2481 -83.3139 212° Southwest 112 129 1,400 -600 Descending Cleveland Center
03:36PM 42.2422 -83.3164 198° South 110 127 1,200 -420 Descending Cleveland Center
03:37PM 42.2147 -83.3361 208° Southwest 112 129 900 -300 Descending Cleveland Center